Euro Snow — VQGH9 — position and weather

sailwx.info

Track history (hours):
 
Tides and Currents Weather Stations Pressure Air Temp Water Temp Dewpoint Dewpoint Depression Visibility Wind Speed Wind Dir Waves Ship Positions

Euro Snow

Last reported at 2017-Jan-20 19:34 UTC. Time now 2017-Jan-20 20:12 UTC.
Position N 51°57' E 003°60'.

Length 133 m; draft 7.2 m.

Type: Ship (hazmat cat A). MMSI: 235613000.

Date/timePositionNaut miles runAvg speedWind from/ knotsBaromVisibWave heightAir tempDewpointWater temp
2017-Jan-20 19:34N 51°57' E 003°60'3 2.8
2017-Jan-20 18:32N 51°57' E 004°04'0 0.0
2017-Jan-20 17:29N 51°57' E 004°04'0 0.0
2017-Jan-20 16:31N 51°57' E 004°04'0 0.0
2017-Jan-20 15:32N 51°57' E 004°04'0 0.0
2017-Jan-20 14:32N 51°57' E 004°04'0 0.0
2017-Jan-20 13:32N 51°57' E 004°04'0 0.0
2017-Jan-20 12:31N 51°57' E 004°04'0 0.0
2017-Jan-20 11:32N 51°57' E 004°04'0 0.0
2017-Jan-20 10:32N 51°57' E 004°04'0 0.0
2017-Jan-20 09:33N 51°57' E 004°04'8 8.1
2017-Jan-20 08:34N 51°60' E 003°52'5 4.7
2017-Jan-20 07:33N 51°56' E 003°48'0 0.1
2017-Jan-20 06:33N 51°56' E 003°48'0 0.1
2017-Jan-20 05:33N 51°56' E 003°48'0 0.1
2017-Jan-20 04:33N 51°56' E 003°47'0 0.0
2017-Jan-20 03:33N 51°56' E 003°47'0 0.0
2017-Jan-20 02:33N 51°56' E 003°47'0 0.0
2017-Jan-20 01:30N 51°56' E 003°47'0 0.0
2017-Jan-20 00:30N 51°56' E 003°47'0 0.0
2017-Jan-19 23:32N 51°56' E 003°47'1 1.5
2017-Jan-19 22:33N 51°56' E 003°45'1616.3
2017-Jan-19 21:33N 51°54' E 003°19'1717.0
2017-Jan-19 20:33N 51°49' E 002°53'1717.0
2017-Jan-19 19:32N 51°39' E 002°30'1717.8
2017-Jan-19 18:33N 51°25' E 002°12'1717.2
2017-Jan-19 17:33N 51°11' E 001°57'1818.2
2017-Jan-19 16:33N 50°59' E 001°36'1917.9
2017-Jan-19 15:31N 50°43' E 001°20'3516.8
2017-Jan-19 13:26N 50°25' E 000°33'1517.5
2017-Jan-19 12:33N 50°20' E 000°10'1716.9
2017-Jan-19 11:33N 50°17' W 000°16'2116.5
2017-Jan-19 10:16N 50°11' W 000°48'1115.8
2017-Jan-19 09:33N 50°09' W 001°05'1515.1
2017-Jan-19 08:33N 50°05' W 001°28'1514.1
2017-Jan-19 07:29N 50°01' W 001°51'2613.3
2017-Jan-19 05:33N 49°54' W 002°29'1414.3
2017-Jan-19 04:33N 49°50' W 002°50'1515.1
2017-Jan-19 03:33N 49°42' W 003°11'1615.4
2017-Jan-19 02:31N 49°34' W 003°32'8015.6
2017-Jan-18 21:21N 48°53' W 005°17'  
2017-Jan-16 08:33N 49°03' W 005°17'13816.7
2017-Jan-16 00:19N 50°06' W 002°07'1114.3
2017-Jan-15 23:34N 50°09' W 001°51'1313.2
2017-Jan-15 22:33N 50°12' W 001°31'4514.7
2017-Jan-15 19:31N 50°25' W 000°24'1917.9
2017-Jan-15 18:27N 50°31' E 000°05'1618.3
2017-Jan-15 17:33N 50°35' E 000°29'1817.7
2017-Jan-15 16:33N 50°44' E 000°53'1716.5
2017-Jan-15 15:33N 50°54' E 001°15'1414.2
2017-Jan-15 14:33N 51°04' E 001°31'1313.4
2017-Jan-15 13:33N 51°13' E 001°46'1515.3
2017-Jan-15 12:33N 51°26' E 002°00'1817.6
2017-Jan-15 11:33N 51°39' E 002°19'5016.7
2017-Jan-15 08:33N 52°03' E 003°31'1515.3
2017-Jan-15 07:33N 52°02' E 003°55'1414.2
2017-Jan-15 06:33N 51°55' E 004°15'7 6.5
2017-Jan-15 05:33N 51°53' E 004°25'0 0.0
2017-Jan-15 04:33N 51°53' E 004°25'0 0.0
2017-Jan-15 03:33N 51°53' E 004°25'0 0.0
2017-Jan-15 02:33N 51°53' E 004°25'0 0.0
2017-Jan-15 01:30N 51°53' E 004°25'0 0.0
2017-Jan-15 00:33N 51°53' E 004°25'0 0.0
2017-Jan-14 23:33N 51°53' E 004°25'0 0.0
2017-Jan-14 22:33N 51°53' E 004°25'0 0.3
2017-Jan-14 21:33N 51°53' E 004°25'1 0.8
2017-Jan-14 20:32N 51°53' E 004°26'0 0.0
2017-Jan-14 19:32N 51°53' E 004°26'0 0.0
2017-Jan-14 18:33N 51°53' E 004°26'0 0.0
2017-Jan-14 17:33N 51°53' E 004°26'4 4.2
2017-Jan-14 16:33N 51°54' E 004°19'1110.7
2017-Jan-14 15:33N 51°58' E 004°03'3 2.4
2017-Jan-14 14:26N 51°57' E 003°59'0 0.0
2017-Jan-14 13:32N 51°57' E 003°59'0 0.0
2017-Jan-14 12:32N 51°57' E 003°59'0 0.0
2017-Jan-14 11:31N 51°57' E 003°59'0 0.0
2017-Jan-14 10:29N 51°57' E 003°59'0 0.0
2017-Jan-14 09:32N 51°57' E 003°59'0 0.0
2017-Jan-14 08:32N 51°57' E 003°59'0 0.0
2017-Jan-14 07:33N 51°57' E 003°59'0 0.0
2017-Jan-14 06:33N 51°57' E 003°59'0 0.0
2017-Jan-14 05:33N 51°57' E 003°59'0 0.0
2017-Jan-14 04:33N 51°57' E 003°59'0 0.0
2017-Jan-14 03:33N 51°57' E 003°59'0 0.0
2017-Jan-13 23:33N 51°57' E 003°59'0 0.0
2017-Jan-13 22:33N 51°57' E 003°59'0 0.0
2017-Jan-13 21:33N 51°57' E 003°59'0 0.2
2017-Jan-13 20:33N 51°57' E 003°60'3 3.1
2017-Jan-13 19:33N 51°57' E 004°05'0 0.0
2017-Jan-13 18:33N 51°57' E 004°05'0 0.0
2017-Jan-13 17:33N 51°57' E 004°05'0 0.0
2017-Jan-13 16:33N 51°57' E 004°05'0 0.0
2017-Jan-13 15:33N 51°57' E 004°05'0 0.0
2017-Jan-13 14:33N 51°57' E 004°05'0 0.0
2017-Jan-13 13:33N 51°57' E 004°05'0 0.0
2017-Jan-13 12:33N 51°57' E 004°05'1 0.5
2017-Jan-13 11:34N 51°57' E 004°04'0 0.2
2017-Jan-13 10:32N 51°57' E 004°04'0 0.0
2017-Jan-13 09:32N 51°57' E 004°04'0 0.0
2017-Jan-13 08:32N 51°57' E 004°04'0 0.0
2017-Jan-13 07:32N 51°57' E 004°04'0 0.0
2017-Jan-13 06:33N 51°57' E 004°04'0 0.0
2017-Jan-13 05:32N 51°57' E 004°04'0 0.0
2017-Jan-13 04:33N 51°57' E 004°04'0 0.0
2017-Jan-13 03:33N 51°57' E 004°04'0 0.0
2017-Jan-13 02:33N 51°57' E 004°04'0 0.0
2017-Jan-13 01:33N 51°57' E 004°04'0 0.0
2017-Jan-13 00:31N 51°57' E 004°04'0 0.0
2017-Jan-12 23:32N 51°57' E 004°04'0 0.0
2017-Jan-12 22:33N 51°57' E 004°04'1 1.2
2017-Jan-12 21:33N 51°58' E 004°05'1312.9
2017-Jan-12 20:33N 51°60' E 003°44'5714.3
2017-Jan-12 16:33N 51°34' E 002°22'1616.6
2017-Jan-12 15:34N 51°20' E 002°08'1818.0
2017-Jan-12 14:33N 51°07' E 001°48'7017.6
2017-Jan-12 10:33N 50°23' E 000°21'1918.6
2017-Jan-12 09:33N 50°18' W 000°08'2920.0
2017-Jan-12 08:08N 50°10' W 000°50'1220.6
2017-Jan-12 07:34N 50°07' W 001°08'2120.9
2017-Jan-12 06:33N 50°01' W 001°39'2020.2
2017-Jan-12 05:33N 49°55' W 002°09'13916.8
2017-Jan-11 21:15N 48°52' W 005°20'1115.0
2017-Jan-11 20:33N 48°46' W 005°34'6312.5
2017-Jan-11 15:32N 47°44' W 005°17'1413.9
2017-Jan-11 14:33N 47°31' W 005°11'1413.7
2017-Jan-11 13:33N 47°19' W 005°03'1413.8
2017-Jan-11 12:33N 47°06' W 004°56'1514.1
2017-Jan-11 11:29N 46°52' W 004°49'1414.4
2017-Jan-11 10:32N 46°39' W 004°43'  
Track history (hours):
 
Tides and Currents Weather Stations Pressure Air Temp Water Temp Dewpoint Dewpoint Depression Visibility Wind Speed Wind Dir Waves Ship Positions

Euro Snow

Last reported at 2017-Jan-20 19:34 UTC. Time now 2017-Jan-20 20:12 UTC.
Position N 51°57' E 003°60'.

Length 133 m; draft 7.2 m.

Type: Ship (hazmat cat A). MMSI: 235613000.

Date/timePositionNaut miles runAvg speedWind from/ knotsBaromVisibWave heightAir tempDewpointWater temp
2017-Jan-20 19:34N 51°57' E 003°60'3 2.8
2017-Jan-20 18:32N 51°57' E 004°04'0 0.0
2017-Jan-20 17:29N 51°57' E 004°04'0 0.0
2017-Jan-20 16:31N 51°57' E 004°04'0 0.0
2017-Jan-20 15:32N 51°57' E 004°04'0 0.0
2017-Jan-20 14:32N 51°57' E 004°04'0 0.0
2017-Jan-20 13:32N 51°57' E 004°04'0 0.0
2017-Jan-20 12:31N 51°57' E 004°04'0 0.0
2017-Jan-20 11:32N 51°57' E 004°04'0 0.0
2017-Jan-20 10:32N 51°57' E 004°04'0 0.0
2017-Jan-20 09:33N 51°57' E 004°04'8 8.1
2017-Jan-20 08:34N 51°60' E 003°52'5 4.7
2017-Jan-20 07:33N 51°56' E 003°48'0 0.1
2017-Jan-20 06:33N 51°56' E 003°48'0 0.1
2017-Jan-20 05:33N 51°56' E 003°48'0 0.1
2017-Jan-20 04:33N 51°56' E 003°47'0 0.0
2017-Jan-20 03:33N 51°56' E 003°47'0 0.0
2017-Jan-20 02:33N 51°56' E 003°47'0 0.0
2017-Jan-20 01:30N 51°56' E 003°47'0 0.0
2017-Jan-20 00:30N 51°56' E 003°47'0 0.0
2017-Jan-19 23:32N 51°56' E 003°47'1 1.5
2017-Jan-19 22:33N 51°56' E 003°45'1616.3
2017-Jan-19 21:33N 51°54' E 003°19'1717.0
2017-Jan-19 20:33N 51°49' E 002°53'1717.0
2017-Jan-19 19:32N 51°39' E 002°30'1717.8
2017-Jan-19 18:33N 51°25' E 002°12'1717.2
2017-Jan-19 17:33N 51°11' E 001°57'1818.2
2017-Jan-19 16:33N 50°59' E 001°36'1917.9
2017-Jan-19 15:31N 50°43' E 001°20'3516.8
2017-Jan-19 13:26N 50°25' E 000°33'1517.5
2017-Jan-19 12:33N 50°20' E 000°10'1716.9
2017-Jan-19 11:33N 50°17' W 000°16'2116.5
2017-Jan-19 10:16N 50°11' W 000°48'1115.8
2017-Jan-19 09:33N 50°09' W 001°05'1515.1
2017-Jan-19 08:33N 50°05' W 001°28'1514.1
2017-Jan-19 07:29N 50°01' W 001°51'2613.3
2017-Jan-19 05:33N 49°54' W 002°29'1414.3
2017-Jan-19 04:33N 49°50' W 002°50'1515.1
2017-Jan-19 03:33N 49°42' W 003°11'1615.4
2017-Jan-19 02:31N 49°34' W 003°32'8015.6
2017-Jan-18 21:21N 48°53' W 005°17'  
2017-Jan-16 08:33N 49°03' W 005°17'13816.7
2017-Jan-16 00:19N 50°06' W 002°07'1114.3
2017-Jan-15 23:34N 50°09' W 001°51'1313.2
2017-Jan-15 22:33N 50°12' W 001°31'4514.7
2017-Jan-15 19:31N 50°25' W 000°24'1917.9
2017-Jan-15 18:27N 50°31' E 000°05'1618.3
2017-Jan-15 17:33N 50°35' E 000°29'1817.7
2017-Jan-15 16:33N 50°44' E 000°53'1716.5
2017-Jan-15 15:33N 50°54' E 001°15'1414.2
2017-Jan-15 14:33N 51°04' E 001°31'1313.4
2017-Jan-15 13:33N 51°13' E 001°46'1515.3
2017-Jan-15 12:33N 51°26' E 002°00'1817.6
2017-Jan-15 11:33N 51°39' E 002°19'5016.7
2017-Jan-15 08:33N 52°03' E 003°31'1515.3
2017-Jan-15 07:33N 52°02' E 003°55'1414.2
2017-Jan-15 06:33N 51°55' E 004°15'7 6.5
2017-Jan-15 05:33N 51°53' E 004°25'0 0.0
2017-Jan-15 04:33N 51°53' E 004°25'0 0.0
2017-Jan-15 03:33N 51°53' E 004°25'0 0.0
2017-Jan-15 02:33N 51°53' E 004°25'0 0.0
2017-Jan-15 01:30N 51°53' E 004°25'0 0.0
2017-Jan-15 00:33N 51°53' E 004°25'0 0.0
2017-Jan-14 23:33N 51°53' E 004°25'0 0.0
2017-Jan-14 22:33N 51°53' E 004°25'0 0.3
2017-Jan-14 21:33N 51°53' E 004°25'1 0.8
2017-Jan-14 20:32N 51°53' E 004°26'0 0.0
2017-Jan-14 19:32N 51°53' E 004°26'0 0.0
2017-Jan-14 18:33N 51°53' E 004°26'0 0.0
2017-Jan-14 17:33N 51°53' E 004°26'4 4.2
2017-Jan-14 16:33N 51°54' E 004°19'1110.7
2017-Jan-14 15:33N 51°58' E 004°03'3 2.4
2017-Jan-14 14:26N 51°57' E 003°59'0 0.0
2017-Jan-14 13:32N 51°57' E 003°59'0 0.0
2017-Jan-14 12:32N 51°57' E 003°59'0 0.0
2017-Jan-14 11:31N 51°57' E 003°59'0 0.0
2017-Jan-14 10:29N 51°57' E 003°59'0 0.0
2017-Jan-14 09:32N 51°57' E 003°59'0 0.0
2017-Jan-14 08:32N 51°57' E 003°59'0 0.0
2017-Jan-14 07:33N 51°57' E 003°59'0 0.0
2017-Jan-14 06:33N 51°57' E 003°59'0 0.0
2017-Jan-14 05:33N 51°57' E 003°59'0 0.0
2017-Jan-14 04:33N 51°57' E 003°59'0 0.0
2017-Jan-14 03:33N 51°57' E 003°59'0 0.0
2017-Jan-13 23:33N 51°57' E 003°59'0 0.0
2017-Jan-13 22:33N 51°57' E 003°59'0 0.0
2017-Jan-13 21:33N 51°57' E 003°59'0 0.2
2017-Jan-13 20:33N 51°57' E 003°60'3 3.1
2017-Jan-13 19:33N 51°57' E 004°05'0 0.0
2017-Jan-13 18:33N 51°57' E 004°05'0 0.0
2017-Jan-13 17:33N 51°57' E 004°05'0 0.0
2017-Jan-13 16:33N 51°57' E 004°05'0 0.0
2017-Jan-13 15:33N 51°57' E 004°05'0 0.0
2017-Jan-13 14:33N 51°57' E 004°05'0 0.0
2017-Jan-13 13:33N 51°57' E 004°05'0 0.0
2017-Jan-13 12:33N 51°57' E 004°05'1 0.5
2017-Jan-13 11:34N 51°57' E 004°04'0 0.2
2017-Jan-13 10:32N 51°57' E 004°04'0 0.0
2017-Jan-13 09:32N 51°57' E 004°04'0 0.0
2017-Jan-13 08:32N 51°57' E 004°04'0 0.0
2017-Jan-13 07:32N 51°57' E 004°04'0 0.0
2017-Jan-13 06:33N 51°57' E 004°04'0 0.0
2017-Jan-13 05:32N 51°57' E 004°04'0 0.0
2017-Jan-13 04:33N 51°57' E 004°04'0 0.0
2017-Jan-13 03:33N 51°57' E 004°04'0 0.0
2017-Jan-13 02:33N 51°57' E 004°04'0 0.0
2017-Jan-13 01:33N 51°57' E 004°04'0 0.0
2017-Jan-13 00:31N 51°57' E 004°04'0 0.0
2017-Jan-12 23:32N 51°57' E 004°04'0 0.0
2017-Jan-12 22:33N 51°57' E 004°04'1 1.2
2017-Jan-12 21:33N 51°58' E 004°05'1312.9
2017-Jan-12 20:33N 51°60' E 003°44'5714.3
2017-Jan-12 16:33N 51°34' E 002°22'1616.6
2017-Jan-12 15:34N 51°20' E 002°08'1818.0
2017-Jan-12 14:33N 51°07' E 001°48'7017.6
2017-Jan-12 10:33N 50°23' E 000°21'1918.6
2017-Jan-12 09:33N 50°18' W 000°08'2920.0
2017-Jan-12 08:08N 50°10' W 000°50'1220.6
2017-Jan-12 07:34N 50°07' W 001°08'2120.9
2017-Jan-12 06:33N 50°01' W 001°39'2020.2
2017-Jan-12 05:33N 49°55' W 002°09'13916.8
2017-Jan-11 21:15N 48°52' W 005°20'1115.0
2017-Jan-11 20:33N 48°46' W 005°34'6312.5
2017-Jan-11 15:32N 47°44' W 005°17'1413.9
2017-Jan-11 14:33N 47°31' W 005°11'1413.7
2017-Jan-11 13:33N 47°19' W 005°03'1413.8
2017-Jan-11 12:33N 47°06' W 004°56'1514.1
2017-Jan-11 11:29N 46°52' W 004°49'1414.4
2017-Jan-11 10:32N 46°39' W 004°43'  

Dump ship's entire track history